MMTP 090740Z 00000KT 10SM SKC 23/22 A2989 RMK HZY= 090742

MMTP 090640Z 00000KT 10SM SKC 23/23 A2990 RMK HZY= 090641

MMTP 090540Z 00000KT 10SM SKC 29/24 A2991 RMK SLP153 54000 900 HZY= 090542

MMTP 090440Z 00000KT 10SM SKC 24/24 A2991 RMK HZY= 090440

MMTP 090340Z 00000KT 10SM SKC 25/25 A2992 RMK HZY= 090340

MMTP 090240Z 02002KT 8SM FEW025 25/25 A2991 RMK SLP153 52021 914 8/100 HZY= 090243

MMTP 090140Z 02002KT 8SM FEW030 26/26 A2989 RMK 8/100 HZY= 090140

MMTP 090040Z 36002KT 8SM FEW040 27/26 A2987 RMK 8/100 HZY= 090040

MMTP 082340Z 22002KT 10SM SCT050 27/25 A2985 RMK SLP132 52005 913 8/500 HZY= 082343

MMTP 082240Z 23005KT 10SM FEW200 30/23 A2984 RMK 8/001 HZY= 082240

MMTP 082140Z 22004KT 10SM FEW200 31/22 A2983 RMK 8/001 HZY= 082140

MMTP 082042Z 23008KT 10SM FEW200 32/21 A2984 RMK SLP127 57025 915 8/001 HZY= 082044

MMTP 081940Z 21007KT 10SM FEW200 33/21 A2985 RMK 8/001 HZY= 081941

MMTP 081841Z 22007KT 10SM SKC 33/19 A2988 RMK HZY= 081842

MMTP 081759Z RTD 20006KT 10SM SKC 33/22 A2991 RMK SLP152 57010 918 HZY= 081800

MMTP 081643Z 08003KT 10SM SKC 32/20 A2993 RMK HZY= 081643

MMTP 081541Z 00000KT 10SM FEW200 31/22 A2994 RMK 8/001 HZY= 081542

MMTP 081440Z 00000KT 10SM SKC 29/23 A2994 RMK SLP162 52021 960 HZY= 081441

MMTP 081340Z 06003KT 10SM SKC 25/23 A2992 RMK HZY= 081340

MMTP 081240Z 06003KT 9SM SKC 21/21 A2990 RMK HZY= 081240

MMTP 081140Z 00000KT 10SM SKC 21/21 A2988 RMK SLP143 52011 905 HZY= 081141

MMTP 081040Z 00000KT 10SM SKC 22/22 A2987 RMK HZY= 081041

MMTP 080940Z 07002KT 10SM SKC 22/22 A2986 RMK HZY= 080941

MMTP 080840Z 07003KT 10SM SKC 22/22 A2985 RMK SLP132 57007 954 HZY= 080843

MMTP 080745Z 00000KT 10SM SKC 22/22 A2985 RMK HZY= 080746

MMTP 080646Z 00000KT 10SM SKC 23/23 A2985 RMK HZY= 080647

MMTP 080540Z 00000KT 10SM SKC 23/23 A2987 RMK SLP139 54000 957 HZY= 080541

MMTP 080448Z 06002KT 10SM SKC 23/23 A2988 RMK HZY= 080449

MMTP 080340Z 00000KT 10SM SKC 24/24 A2989 RMK HZY= 080341

MMTP 080240Z 00000KT 10SM SKC 24/24 A2987 RMK SLP139 52020 960 HZY= 080241

MMTP 080140Z 00000KT 10SM SKC 25/25 A2985 RMK HZY= 080140

MMTP 080040Z 00000KT 10SM SKC 25/25 A2983 RMK HZY= 080040

MMTP 072340Z 24005KT 10SM SKC 28/25 A2981 RMK SLP119 52007 963 HZY= 072340

MMTP 072240Z 24007KT 10SM SKC 30/24 A2980 RMK HZY= 072240

MMTP 072140Z 23007KT 10SM SKC 31/22 A2979 RMK HZY= 072141

MMTP 072040Z 22010KT 10SM FEW030 32/21 A2979 RMK SLP112 57027 965 8/100 HZY= 072042

MMTP 071944Z 24006KT 10SM FEW030 32/21 A2981 RMK 8/100 HZY= 071945

MMTP 071844Z 20004KT 10SM FEW030 32/25 A2984 RMK 8/100 HZY= 071844

MMTP 071740Z 24004KT 10SM FEW020 33/24 A2987 RMK SLP139 52013 912 8/100 HZY= 071743

MMTP 071649Z 00000KT 10SM FEW020 32/24 A2990 RMK 8/100 HZY= 071649

MMTP 071540Z 00000KT 10SM FEW040 31/25 A2992 RMK 8/100 HZY= 071541

MMTP 071440Z 02003KT 10SM SKC 29/26 A2991 RMK SLP152 52014 914 HZY= 071445

MMTP 071341Z 00000KT 9SM SKC 25/25 A2989 RMK HZY= 071344

MMTP 071240Z 00000KT 9SM SKC 22/22 A2987 RMK HZY FULYR= 071241

MMTP 071143Z 00000KT 9SM SKC 21/21 A2987 RMK SLP138 52002 967 HZY= 071145

MMTP 071040Z 00000KT 9SM SKC 21/21 A2986 RMK HZY= 071041

MMTP 070940Z 00000KT 9SM SKC 21/21 A2986 RMK HZY= 070940

MMTP 070900Z RTD 00000KT 9SM SKC 22/22 A2986 RMK SLP136 57010 970 HZY= 070903

MMTP 070743Z 00000KT 9SM SKC 22/21 A2988 RMK HZY= 070743

MMTP 070640Z 00000KT 9SM SKC 22/22 A2989 RMK HZY= 070640